Scroll down
FLIGHT INFORMATION
United Airlines

UAL920

At Arrival Gate

KDEN
 KIAD
DATE: 2018-08-17
GATE: B32W
GATE DEPARTURE: 03:56
TAKEOFF: 04:07
DATE: 2018-08-17
GATE: C1
LANDING: 06:47
GATE ARRIVAL: 06:58
FLIGHT DATA
Crew: KYLE WEBER
Speed: 512 kts Altitude: 39000 ft
Stage Length: 1259 nm
Route: 
Block Time: 3 Flight Time: 2.7
Fuel Used: 55215 LB
TRACK DATA
50000 FT1000 KT
AIRCRAFT INFORMATION
Aircraft Type: B744
Registration: N177UA
SELCAL: FGJP MSN/LN: 24384 / 819
Operator: UNITED AIRLINES
Flights: 3 Block Time: 8.9 Flight Time: 7.9
Fuel Used: 174067 LB
  • DEPARTURE INFORMATION
    Date: 2018-08-17
    Airport: KDEN
    Gate: B32W
    Gate Departure: 03:56
    Takeoff: 04:07
    ARRIVAL INFORMATION
    Date: 2018-08-17
    Airport: KIAD
    Gate: C1
    Landing: 06:47
    Gate Arrival: 06:58
  • FLIGHT DATA
    Crew: KYLE WEBER
    Speed: 512 kts Altitude: 39000 ft
    Stage Length: 680 nm
    Route: 
    Block Time: 3 Flight Time: 2.7
    Fuel Used: 55215 LB
  • AIRCRAFT INFORMATION
    Aircraft Type: B744
    Registration: N177UA
    SELCAL: FGJP MSN/LN: 24384 / 819
    Operator: United Airlines
    Flights: 3 Block Time: 8.9 Flight Time: 7.9
    Fuel Used: 174067 LB

DATALINK LOG | Newest first | Current as of: 2020-09-21 15:53:53
LABEL SEQUENCE CONTENT Dn/Up
QD583106:58 18.5▼ Dn
QC474006:47▼ Dn
GA3024GATE C1▲ Up
GR0167KIAD▼ Dn
2U2822KIAD 170452Z 00000KT 10SM FEW250 24/23 A3011 RMK AO2 SLP193 T02440233 403220194▲ Up
2S1417KIAD▼ Dn
2U2620KDEN 170453Z 17007KT 10SM FEW150 19/10 A3024 RMK AO2 SLP163 T01890100▲ Up
2S1128KDEN▼ Dn
2U2418KIAD 170452Z 00000KT 10SM FEW250 24/23 A3011 RMK AO2 SLP193 T02440233 403220194▲ Up
2S0941KIAD▼ Dn
460854/OV XXX /TM 0608 /FL390 /TP B744 /TA -20 /WV 268/39 /RM HI MOM▼ Dn
5U1915KIAD 162339Z 1700/1806 19006KT P6SM FEW050 BKN250 FM170100 VRB03KT P6SM SCT150 BKN250 FM171300 20007KT P6SM SCT100 BKN250 FM171800 22010G16KT P6SM SCT050 BKN250 FM172100 23008KT P6SM VCTS BKN050CB OVC250 FM180100 VRB03KT P6SM SCT050 BKN250▲ Up
5S0457KIAD▼ Dn
QB074404:07▼ Dn
QA563603:56 74▼ Dn
5U4339KIAD 162339Z 1700/1806 19006KT P6SM FEW050 BKN250 FM170100 VRB03KT P6SM SCT150 BKN250 FM171300 20007KT P6SM SCT100 BKN250 FM171800 22010G16KT P6SM SCT050 BKN250 FM172100 23008KT P6SM VCTS BKN050CB OVC250 FM180100 VRB03KT P6SM SCT050 BKN250▲ Up
5S4216KIAD▼ Dn
5U4136KIAD 162339Z 1700/1806 19006KT P6SM FEW050 BKN250 FM170100 VRB03KT P6SM SCT150 BKN250 FM171300 20007KT P6SM SCT100 BKN250 FM171800 22010G16KT P6SM SCT050 BKN250 FM172100 23008KT P6SM VCTS BKN050CB OVC250 FM180100 VRB03KT P6SM SCT050 BKN250▲ Up
5U4136KDEN 170301Z 1703/1806 13008KT P6SM SCT120 BKN160 FM170500 19007KT P6SM SCT180 FM171400 23006KT P6SM SCT150 FM172200 13010KT P6SM SCT100 SCT200 PROB30 1722/1802 VRB20G30KT -TSRA SCT080CB BKN140▲ Up
5S4014KDEN KIAD▼ Dn


AIRCRAFT HISTORY
FLIGHT DATE FLIGHT NO. ORIGIN DESTINATION ROUTE BLOCK TIME FLIGHT TIME FUEL USED (LB) PILOT
2018-09-30UAL1768KSFO KVCV 1.50.923865Douglas Morlan
2018-08-19UAL1881KIAD KSFO 5.4594988Matthew Gales
2018-08-17UAL920KDEN KIAD 32.755215Kyle Weber